createdAt,value
2022-10-18T00:02:15.075Z,6.94
2022-10-18T00:04:41.654Z,6.90
2022-10-18T00:07:08.220Z,6.88
2022-10-18T00:09:35.919Z,6.84
2022-10-18T00:12:02.543Z,6.84
2022-10-18T00:14:29.080Z,6.78
2022-10-18T00:16:55.649Z,6.78
2022-10-18T00:19:25.845Z,6.77
2022-10-18T00:21:55.149Z,6.73
2022-10-18T00:24:21.729Z,6.70
2022-10-18T00:26:48.292Z,6.79
2022-10-18T00:29:16.169Z,6.80
2022-10-18T00:31:44.150Z,6.77
2022-10-18T00:34:15.275Z,6.71
2022-10-18T00:36:42.951Z,6.68
2022-10-18T00:39:15.308Z,6.63
2022-10-18T00:41:41.927Z,6.67
2022-10-18T00:44:11.260Z,6.61
2022-10-18T00:46:46.852Z,6.59
2022-10-18T00:49:25.092Z,6.60
2022-10-18T00:52:27.587Z,6.58
2022-10-18T00:54:55.956Z,6.54
2022-10-18T00:57:23.473Z,6.48
2022-10-18T00:59:50.243Z,6.49
2022-10-18T01:02:18.408Z,6.51
2022-10-18T01:04:46.578Z,6.47
2022-10-18T01:07:49.066Z,6.44
2022-10-18T01:10:32.312Z,6.35
2022-10-18T01:13:32.962Z,6.42
2022-10-18T01:16:15.000Z,6.40
2022-10-18T01:19:09.664Z,6.34
2022-10-18T01:21:50.306Z,6.35
2022-10-18T01:24:35.390Z,6.32
2022-10-18T01:27:29.637Z,6.24
2022-10-18T01:30:18.040Z,6.19
2022-10-18T01:32:48.739Z,6.22
2022-10-18T01:35:20.041Z,6.20
2022-10-18T01:37:49.456Z,6.17
2022-10-18T01:40:19.770Z,6.16
2022-10-18T01:42:48.356Z,6.12
2022-10-18T01:45:16.953Z,6.14
2022-10-18T01:47:45.738Z,6.14
2022-10-18T01:50:13.183Z,6.09
2022-10-18T01:52:50.082Z,6.01
2022-10-18T01:55:17.494Z,6.05
2022-10-18T01:58:11.423Z,6.04
2022-10-18T02:00:44.383Z,5.99
2022-10-18T02:03:23.365Z,5.91
2022-10-18T02:06:02.071Z,5.97
2022-10-18T02:08:39.426Z,5.95
2022-10-18T02:11:13.321Z,5.88
2022-10-18T02:14:00.386Z,5.90
2022-10-18T02:16:33.847Z,5.85
2022-10-18T02:19:12.835Z,5.85
2022-10-18T02:21:41.971Z,5.84
2022-10-18T02:24:11.413Z,5.83
2022-10-18T02:26:38.164Z,5.82
2022-10-18T02:29:05.052Z,5.78
2022-10-18T02:31:40.021Z,5.83
2022-10-18T02:34:24.728Z,5.80
2022-10-18T02:36:58.058Z,5.70
2022-10-18T02:39:34.911Z,5.77
2022-10-18T02:42:06.738Z,5.70
2022-10-18T02:44:34.433Z,5.84
2022-10-18T02:47:01.746Z,5.80
2022-10-18T02:49:28.374Z,5.83
2022-10-18T02:51:55.146Z,5.83
2022-10-18T02:54:22.531Z,5.78
2022-10-18T02:56:49.501Z,5.66
2022-10-18T02:59:16.567Z,5.64
2022-10-18T03:01:43.221Z,5.65
2022-10-18T03:04:09.884Z,5.68
2022-10-18T03:06:36.461Z,5.61
2022-10-18T03:09:05.276Z,5.56
2022-10-18T03:11:32.071Z,5.59
2022-10-18T03:13:58.628Z,5.58
2022-10-18T03:16:25.387Z,5.65
2022-10-18T03:18:52.003Z,5.63
2022-10-18T03:21:18.646Z,5.62
2022-10-18T03:23:45.153Z,5.65
2022-10-18T03:26:11.684Z,5.75
2022-10-18T03:28:38.356Z,5.78
2022-10-18T03:31:05.214Z,5.82
2022-10-18T03:33:32.961Z,5.90
2022-10-18T03:35:59.925Z,5.85
2022-10-18T03:38:26.998Z,5.84
2022-10-18T03:40:53.539Z,5.83
2022-10-18T03:43:20.143Z,5.79
2022-10-18T03:45:46.776Z,5.68
2022-10-18T03:48:13.465Z,5.61
2022-10-18T03:50:40.046Z,5.57
2022-10-18T03:53:06.652Z,5.52
2022-10-18T03:55:33.222Z,5.50
2022-10-18T03:57:59.780Z,5.54
2022-10-18T04:00:26.477Z,5.46
2022-10-18T04:02:55.882Z,5.34
2022-10-18T04:05:28.321Z,5.34
2022-10-18T04:07:55.147Z,5.27
2022-10-18T04:10:21.791Z,5.32
2022-10-18T04:12:48.380Z,5.32
2022-10-18T04:15:15.323Z,5.31
2022-10-18T04:17:42.074Z,5.27
2022-10-18T04:20:09.179Z,5.20
2022-10-18T04:22:35.762Z,5.15
2022-10-18T04:25:02.408Z,5.11
2022-10-18T04:27:29.418Z,5.03
2022-10-18T04:29:56.136Z,5.03
2022-10-18T04:32:29.415Z,4.92
2022-10-18T04:34:56.177Z,4.90
2022-10-18T04:37:22.759Z,4.91
2022-10-18T04:39:52.616Z,4.90
2022-10-18T04:42:21.150Z,4.93
2022-10-18T04:44:47.931Z,4.85
2022-10-18T04:47:14.484Z,4.80
2022-10-18T04:49:41.015Z,4.82
2022-10-18T04:52:08.115Z,4.88
2022-10-18T04:54:35.180Z,4.89
2022-10-18T04:57:01.765Z,4.82
2022-10-18T04:59:28.321Z,4.83
2022-10-18T05:01:55.063Z,4.78
2022-10-18T05:04:21.795Z,4.80
2022-10-18T05:06:48.444Z,4.77
2022-10-18T05:09:16.209Z,4.79
2022-10-18T05:11:43.259Z,4.75
2022-10-18T05:14:12.375Z,4.80
2022-10-18T05:16:38.962Z,4.82
2022-10-18T05:19:05.916Z,4.88
2022-10-18T05:21:33.425Z,4.91
2022-10-18T05:24:00.048Z,4.93
2022-10-18T05:26:27.183Z,5.00
2022-10-18T05:28:53.809Z,5.07
2022-10-18T05:31:21.342Z,5.12
2022-10-18T05:33:48.064Z,5.13
2022-10-18T05:36:15.027Z,5.18
2022-10-18T05:38:42.993Z,5.24
2022-10-18T05:41:10.347Z,5.30
2022-10-18T05:43:36.943Z,5.34
2022-10-18T05:46:04.751Z,5.41
2022-10-18T05:48:31.637Z,5.54
2022-10-18T05:50:59.739Z,5.72
2022-10-18T05:53:42.179Z,6.01
2022-10-18T05:56:09.125Z,6.33
2022-10-18T05:58:35.713Z,6.50
2022-10-18T06:01:04.134Z,6.67
2022-10-18T06:03:31.227Z,6.84
2022-10-18T06:06:03.598Z,7.00
2022-10-18T06:08:30.381Z,7.22
2022-10-18T06:10:57.341Z,7.31
2022-10-18T06:13:23.891Z,7.40
2022-10-18T06:15:50.650Z,7.56
2022-10-18T06:18:17.179Z,7.83
2022-10-18T06:20:43.706Z,8.01
2022-10-18T06:23:10.246Z,8.26
2022-10-18T06:25:36.790Z,8.38
2022-10-18T06:28:07.819Z,8.54
2022-10-18T06:30:37.102Z,8.75
2022-10-18T06:33:03.657Z,8.96
2022-10-18T06:35:30.194Z,8.97
2022-10-18T06:37:57.667Z,9.16
2022-10-18T06:40:24.470Z,9.39
2022-10-18T06:43:00.184Z,9.64
2022-10-18T06:45:27.297Z,9.71
2022-10-18T06:47:53.858Z,9.85
2022-10-18T06:50:20.398Z,10.12
2022-10-18T06:52:48.879Z,10.40
2022-10-18T06:55:15.462Z,10.53
2022-10-18T06:57:42.034Z,10.81
2022-10-18T07:00:09.274Z,11.16
2022-10-18T07:02:37.452Z,11.35
2022-10-18T07:05:04.145Z,11.54
2022-10-18T07:07:31.884Z,11.81
2022-10-18T07:09:58.811Z,11.96
2022-10-18T07:12:25.404Z,12.28
2022-10-18T07:14:51.950Z,12.70
2022-10-18T07:17:18.500Z,12.92
2022-10-18T07:19:45.055Z,13.05
2022-10-18T07:22:11.572Z,13.17
2022-10-18T07:24:38.100Z,13.37
2022-10-18T07:27:04.822Z,13.43
2022-10-18T07:29:31.899Z,13.71
2022-10-18T07:31:58.424Z,13.72
2022-10-18T07:34:25.047Z,13.85
2022-10-18T07:36:51.661Z,13.97
2022-10-18T07:39:18.184Z,14.07
2022-10-18T07:41:44.716Z,14.02
2022-10-18T07:44:11.330Z,14.25
2022-10-18T07:46:37.924Z,14.33
2022-10-18T07:49:04.535Z,14.35
2022-10-18T07:51:32.798Z,14.68
2022-10-18T07:53:59.643Z,14.86
2022-10-18T07:56:26.193Z,14.68
2022-10-18T07:58:54.469Z,14.93
2022-10-18T08:01:23.419Z,15.01
2022-10-18T08:03:50.799Z,15.20
2022-10-18T08:06:19.865Z,15.52
2022-10-18T08:08:46.844Z,15.18
2022-10-18T08:11:18.115Z,15.38
2022-10-18T08:13:45.165Z,15.52
2022-10-18T08:16:14.562Z,15.87
2022-10-18T08:18:41.328Z,16.24
2022-10-18T08:21:09.881Z,16.49
2022-10-18T08:23:37.131Z,16.65
2022-10-18T08:26:09.792Z,16.56
2022-10-18T08:28:36.967Z,16.65
2022-10-18T08:31:05.655Z,16.75
2022-10-18T08:33:33.367Z,16.93
2022-10-18T08:36:02.304Z,17.21
2022-10-18T08:38:33.738Z,17.37
2022-10-18T08:41:21.260Z,17.37
2022-10-18T08:44:07.214Z,17.16
2022-10-18T08:46:35.886Z,17.84
2022-10-18T08:49:04.295Z,18.35
2022-10-18T08:51:45.460Z,18.62
2022-10-18T08:54:35.237Z,18.25
2022-10-18T08:57:05.006Z,18.14
2022-10-18T08:59:39.374Z,18.36
2022-10-18T09:02:15.763Z,18.55
2022-10-18T09:05:07.269Z,18.83
2022-10-18T09:07:51.496Z,18.41
2022-10-18T09:10:39.733Z,18.34
2022-10-18T09:13:40.313Z,18.99
2022-10-18T09:16:21.803Z,19.28
2022-10-18T09:19:25.278Z,19.48
2022-10-18T09:22:00.877Z,18.88
2022-10-18T09:24:39.086Z,19.74
2022-10-18T09:27:14.532Z,19.93
2022-10-18T09:29:52.426Z,19.64
2022-10-18T09:32:39.098Z,20.16
2022-10-18T09:35:23.124Z,20.51
2022-10-18T09:37:53.115Z,19.72
2022-10-18T09:40:21.482Z,20.65
2022-10-18T09:42:55.874Z,20.81
2022-10-18T09:45:31.410Z,20.97
2022-10-18T09:48:13.932Z,21.53
2022-10-18T09:50:45.494Z,21.02
2022-10-18T09:53:20.189Z,21.64
2022-10-18T09:56:02.350Z,21.81
2022-10-18T09:58:44.426Z,21.81
2022-10-18T10:01:15.708Z,22.32
2022-10-18T10:03:42.969Z,22.27
2022-10-18T10:06:12.328Z,23.38
2022-10-18T10:08:53.506Z,24.56
2022-10-18T10:11:29.016Z,24.56
2022-10-18T10:14:08.336Z,25.52
2022-10-18T10:16:43.935Z,26.84
2022-10-18T10:19:28.480Z,26.94
2022-10-18T10:22:02.987Z,26.24
2022-10-18T10:24:50.735Z,26.81
2022-10-18T10:27:22.071Z,27.42
2022-10-18T10:29:53.904Z,27.78
2022-10-18T10:32:22.875Z,25.10
2022-10-18T10:34:50.530Z,25.30
2022-10-18T10:37:37.792Z,26.04
2022-10-18T10:40:18.461Z,23.53
2022-10-18T10:43:19.559Z,23.34
2022-10-18T10:46:01.072Z,23.14
2022-10-18T10:48:33.339Z,23.75
2022-10-18T10:51:05.873Z,23.49
2022-10-18T10:53:42.560Z,23.95
2022-10-18T10:56:36.583Z,25.22
2022-10-18T10:59:18.997Z,23.94
2022-10-18T11:01:49.791Z,24.45
2022-10-18T11:04:24.689Z,25.73
2022-10-18T11:07:20.395Z,26.08
2022-10-18T11:10:11.489Z,26.47
2022-10-18T11:12:47.785Z,27.12
2022-10-18T11:15:26.291Z,28.08
2022-10-18T11:18:04.789Z,26.46
2022-10-18T11:20:38.538Z,26.74
2022-10-18T11:23:12.174Z,26.90
2022-10-18T11:25:44.348Z,27.95
2022-10-18T11:28:28.628Z,28.74
2022-10-18T11:31:07.382Z,28.13
2022-10-18T11:34:07.708Z,28.86
2022-10-18T11:36:54.563Z,28.65
2022-10-18T11:39:47.780Z,26.77
2022-10-18T11:42:14.247Z,27.55
2022-10-18T11:44:56.789Z,29.36
2022-10-18T11:47:55.814Z,27.83
2022-10-18T11:50:34.720Z,27.67
2022-10-18T11:53:13.319Z,27.77
2022-10-18T11:56:04.026Z,28.55
2022-10-18T11:58:38.867Z,29.03
2022-10-18T12:01:28.614Z,28.87
2022-10-18T12:04:14.013Z,28.66
2022-10-18T12:06:43.360Z,27.28
2022-10-18T12:09:30.080Z,27.24
2022-10-18T12:12:19.946Z,27.52
2022-10-18T12:14:57.252Z,27.45
2022-10-18T12:17:51.253Z,26.77
2022-10-18T12:20:41.671Z,26.45
2022-10-18T12:23:20.309Z,26.43
2022-10-18T12:25:51.865Z,26.75
2022-10-18T12:28:49.553Z,27.25
2022-10-18T12:31:22.268Z,27.22
2022-10-18T12:33:52.515Z,26.98
2022-10-18T12:36:28.906Z,27.11
2022-10-18T12:38:55.390Z,27.29
2022-10-18T12:41:25.686Z,27.43
2022-10-18T12:43:54.845Z,26.52
2022-10-18T12:46:21.835Z,27.25
2022-10-18T12:49:04.711Z,27.21
2022-10-18T12:51:31.701Z,27.11
2022-10-18T12:57:04.719Z,25.72
2022-10-18T12:59:31.188Z,25.72
2022-10-18T13:02:00.538Z,25.26
2022-10-18T13:04:27.056Z,25.85
2022-10-18T13:07:05.478Z,25.72
2022-10-18T13:09:36.279Z,26.71
2022-10-18T13:12:14.766Z,27.26
2022-10-18T13:15:12.521Z,27.06
2022-10-18T13:17:47.007Z,26.94
2022-10-18T13:20:39.789Z,25.99
2022-10-18T13:23:18.500Z,26.49
2022-10-18T13:26:05.356Z,26.86
2022-10-18T13:28:34.861Z,26.51
2022-10-18T13:31:23.013Z,27.09
2022-10-18T13:33:50.029Z,26.44
2022-10-18T13:36:21.617Z,26.68
2022-10-18T13:38:59.018Z,26.68
2022-10-18T13:41:56.682Z,26.31
2022-10-18T13:44:24.446Z,26.49
2022-10-18T13:46:51.470Z,25.65
2022-10-18T13:49:44.459Z,25.03
2022-10-18T13:52:26.547Z,25.43
2022-10-18T13:55:30.631Z,24.86
2022-10-18T13:58:06.320Z,24.76
2022-10-18T14:01:02.340Z,24.23
2022-10-18T14:03:58.246Z,24.69
2022-10-18T14:06:38.121Z,23.88
2022-10-18T14:09:40.323Z,23.37
2022-10-18T14:12:32.581Z,22.58
2022-10-18T14:15:15.830Z,22.17
2022-10-18T14:17:53.375Z,21.54
2022-10-18T14:20:49.040Z,20.86
2022-10-18T14:23:26.073Z,20.71
2022-10-18T14:26:05.630Z,20.12
2022-10-18T14:28:55.001Z,19.88
2022-10-18T14:31:20.171Z,19.64
2022-10-18T14:33:57.040Z,19.37
2022-10-18T14:36:30.774Z,19.36
2022-10-18T14:39:02.607Z,19.14
2022-10-18T14:41:38.553Z,19.11
2022-10-18T14:44:18.560Z,18.94
2022-10-18T14:46:46.298Z,18.97
2022-10-18T14:49:14.339Z,18.74
2022-10-18T14:51:44.085Z,18.62
2022-10-18T14:54:16.488Z,18.43
2022-10-18T14:56:44.359Z,18.20
2022-10-18T14:59:17.884Z,18.09
2022-10-18T15:01:59.998Z,17.93
2022-10-18T15:04:34.271Z,17.87
2022-10-18T15:07:05.522Z,17.66
2022-10-18T15:09:34.725Z,17.44
2022-10-18T15:12:04.997Z,17.16
2022-10-18T15:14:32.028Z,17.07
2022-10-18T15:17:21.119Z,16.63
2022-10-18T15:19:55.211Z,16.51
2022-10-18T15:22:31.711Z,16.23
2022-10-18T15:25:12.646Z,16.07
2022-10-18T15:27:40.255Z,15.71
2022-10-18T15:30:37.637Z,15.50
2022-10-18T15:33:09.680Z,15.26
2022-10-18T15:35:38.597Z,15.06
2022-10-18T15:38:23.026Z,14.89
2022-10-18T15:40:49.646Z,14.65
2022-10-18T15:43:28.502Z,14.49
2022-10-18T15:45:58.833Z,14.26
2022-10-18T15:48:39.436Z,14.05
2022-10-18T15:51:08.269Z,13.87
2022-10-18T15:53:42.875Z,13.64
2022-10-18T15:56:28.380Z,13.42
2022-10-18T15:58:59.296Z,13.21
2022-10-18T16:01:44.492Z,13.05
2022-10-18T16:04:25.373Z,12.83
2022-10-18T16:06:52.507Z,12.67
2022-10-18T16:09:20.679Z,12.47
2022-10-18T16:11:55.633Z,12.37
2022-10-18T16:14:24.369Z,12.13
2022-10-18T16:16:55.336Z,11.95
2022-10-18T16:19:22.887Z,11.87
2022-10-18T16:21:50.945Z,11.75
2022-10-18T16:24:17.789Z,11.70
2022-10-18T16:26:44.472Z,11.56
2022-10-18T16:29:14.577Z,11.47
2022-10-18T16:31:41.766Z,11.38
2022-10-18T16:34:11.142Z,11.27
2022-10-18T16:36:37.836Z,11.21
2022-10-18T16:39:07.712Z,11.17
2022-10-18T16:41:36.387Z,11.14
2022-10-18T16:44:03.060Z,11.01
2022-10-18T16:46:32.741Z,10.95
2022-10-18T16:49:00.237Z,10.88
2022-10-18T16:51:27.292Z,10.85
2022-10-18T16:53:54.500Z,10.80
2022-10-18T16:56:32.252Z,10.62
2022-10-18T16:58:59.514Z,10.60
2022-10-18T17:01:26.453Z,10.49
2022-10-18T17:03:53.905Z,10.46
2022-10-18T17:06:26.275Z,10.34
2022-10-18T17:08:53.316Z,10.31
2022-10-18T17:11:21.105Z,10.27
2022-10-18T17:13:47.754Z,10.16
2022-10-18T17:16:35.610Z,10.08
2022-10-18T17:19:06.028Z,10.07
2022-10-18T17:21:35.857Z,10.00
2022-10-18T17:24:04.358Z,9.92
2022-10-18T17:26:30.997Z,9.89
2022-10-18T17:29:04.126Z,9.77
2022-10-18T17:31:32.196Z,9.70
2022-10-18T17:34:01.522Z,9.71
2022-10-18T17:36:28.496Z,9.60
2022-10-18T17:38:55.861Z,9.52
2022-10-18T17:41:23.031Z,9.52
2022-10-18T17:43:49.966Z,9.47
2022-10-18T17:46:18.164Z,9.41
2022-10-18T17:48:45.364Z,9.38
2022-10-18T17:51:14.405Z,9.25
2022-10-18T17:53:41.137Z,9.23
2022-10-18T17:56:08.228Z,9.20
2022-10-18T17:58:35.458Z,9.16
2022-10-18T18:01:16.293Z,9.13
2022-10-18T18:03:43.356Z,9.11
2022-10-18T18:06:19.182Z,9.10
2022-10-18T18:08:46.855Z,9.08
2022-10-18T18:11:14.265Z,9.04
2022-10-18T18:13:41.057Z,9.02
2022-10-18T18:16:17.399Z,9.02
2022-10-18T18:18:44.469Z,9.00
2022-10-18T18:21:11.289Z,8.97
2022-10-18T18:23:37.928Z,8.99
2022-10-18T18:26:04.743Z,9.15
2022-10-18T18:28:31.322Z,9.04
2022-10-18T18:30:57.979Z,8.97
2022-10-18T18:33:24.650Z,9.02
2022-10-18T18:35:58.543Z,8.95
2022-10-18T18:38:26.145Z,8.89
2022-10-18T18:41:05.036Z,8.72
2022-10-18T18:43:31.607Z,8.74
2022-10-18T18:45:58.227Z,8.67
2022-10-18T18:48:26.716Z,8.66
2022-10-18T18:50:53.517Z,8.60
2022-10-18T18:53:20.110Z,8.57
2022-10-18T18:55:47.768Z,8.53
2022-10-18T18:58:14.307Z,8.50
2022-10-18T19:00:44.398Z,8.53
2022-10-18T19:03:12.190Z,8.48
2022-10-18T19:05:39.018Z,8.48
2022-10-18T19:08:06.264Z,8.45
2022-10-18T19:10:32.922Z,8.44
2022-10-18T19:12:59.478Z,8.41
2022-10-18T19:15:26.116Z,8.40
2022-10-18T19:17:52.649Z,8.34
2022-10-18T19:20:19.353Z,8.30
2022-10-18T19:22:45.974Z,8.29
2022-10-18T19:25:12.938Z,8.20
2022-10-18T19:27:39.591Z,8.07
2022-10-18T19:30:09.251Z,8.04
2022-10-18T19:32:35.880Z,8.09
2022-10-18T19:35:03.317Z,8.13
2022-10-18T19:37:30.049Z,8.00
2022-10-18T19:39:56.757Z,7.93
2022-10-18T19:42:27.492Z,7.88
2022-10-18T19:44:57.111Z,7.91
2022-10-18T19:47:23.655Z,7.90
2022-10-18T19:49:50.381Z,7.88
2022-10-18T19:52:16.998Z,7.79
2022-10-18T19:54:44.978Z,7.72
2022-10-18T19:57:11.750Z,7.77
2022-10-18T19:59:38.914Z,7.62
2022-10-18T20:02:05.624Z,7.60
2022-10-18T20:04:34.742Z,7.56
2022-10-18T20:07:02.797Z,7.57
2022-10-18T20:09:29.774Z,7.60
2022-10-18T20:11:56.349Z,7.60
2022-10-18T20:14:23.091Z,7.56
2022-10-18T20:16:49.624Z,7.55
2022-10-18T20:19:16.166Z,7.45
2022-10-18T20:21:42.772Z,7.46
2022-10-18T20:24:11.116Z,7.42
2022-10-18T20:26:40.725Z,7.29
2022-10-18T20:29:08.109Z,7.31
2022-10-18T20:31:38.315Z,7.38
2022-10-18T20:34:08.112Z,7.38
2022-10-18T20:36:35.139Z,7.30
2022-10-18T20:39:03.078Z,7.22
2022-10-18T20:41:32.477Z,7.29
2022-10-18T20:44:02.853Z,7.28
2022-10-18T20:46:35.043Z,7.24
2022-10-18T20:49:02.475Z,7.19
2022-10-18T20:51:29.101Z,7.13
2022-10-18T20:53:55.837Z,7.20
2022-10-18T20:56:29.136Z,7.16
2022-10-18T20:58:57.008Z,7.15
2022-10-18T21:01:25.187Z,7.11
2022-10-18T21:03:55.884Z,7.04
2022-10-18T21:06:24.944Z,7.09
2022-10-18T21:08:57.073Z,7.01
2022-10-18T21:11:25.162Z,6.97
2022-10-18T21:13:57.497Z,6.98
2022-10-18T21:16:24.129Z,6.93
2022-10-18T21:18:50.788Z,6.96
2022-10-18T21:21:25.640Z,6.96
2022-10-18T21:23:53.497Z,6.88
2022-10-18T21:26:22.681Z,6.85
2022-10-18T21:28:53.692Z,6.86
2022-10-18T21:31:28.562Z,6.80
2022-10-18T21:34:00.282Z,6.82
2022-10-18T21:36:30.219Z,6.86
2022-10-18T21:38:57.076Z,6.77
2022-10-18T21:41:24.247Z,6.84
2022-10-18T21:43:53.780Z,6.69
2022-10-18T21:46:22.329Z,6.69
2022-10-18T21:48:51.399Z,6.69
2022-10-18T21:51:19.800Z,6.72
2022-10-18T21:53:48.330Z,6.75
2022-10-18T21:56:17.634Z,6.71
2022-10-18T21:58:44.697Z,6.65
2022-10-18T22:01:14.383Z,6.66
2022-10-18T22:03:41.196Z,6.60
2022-10-18T22:06:14.204Z,6.67
2022-10-18T22:08:45.515Z,6.67
2022-10-18T22:11:13.115Z,6.63
2022-10-18T22:13:39.862Z,6.58
2022-10-18T22:16:07.751Z,6.60
2022-10-18T22:18:35.230Z,6.60
2022-10-18T22:21:06.982Z,6.62
2022-10-18T22:23:36.044Z,6.63
2022-10-18T22:26:05.578Z,6.72
2022-10-18T22:28:32.202Z,6.78
2022-10-18T22:30:59.211Z,6.79
2022-10-18T22:33:25.892Z,6.87
2022-10-18T22:35:52.540Z,7.01
2022-10-18T22:38:19.215Z,7.12
2022-10-18T22:40:46.086Z,7.19
2022-10-18T22:43:13.009Z,7.37
2022-10-18T22:45:40.030Z,7.37
2022-10-18T22:48:06.886Z,7.43
2022-10-18T22:50:33.534Z,7.56
2022-10-18T22:53:00.083Z,7.68
2022-10-18T22:55:26.639Z,7.87
2022-10-18T22:57:55.471Z,7.79
2022-10-18T23:00:22.146Z,7.77
2022-10-18T23:02:49.949Z,7.97
2022-10-18T23:05:16.538Z,7.98
2022-10-18T23:07:47.764Z,7.92
2022-10-18T23:10:14.639Z,7.93
2022-10-18T23:12:41.179Z,8.03
2022-10-18T23:15:08.237Z,8.03
2022-10-18T23:17:35.083Z,7.92
2022-10-18T23:20:01.915Z,7.86
2022-10-18T23:22:28.486Z,8.00
2022-10-18T23:24:55.027Z,8.01
2022-10-18T23:27:21.600Z,8.05
2022-10-18T23:29:48.163Z,7.87
2022-10-18T23:32:14.725Z,8.14
2022-10-18T23:34:41.256Z,8.22
2022-10-18T23:37:07.826Z,8.21
2022-10-18T23:39:34.382Z,8.29
2022-10-18T23:42:00.925Z,8.31
2022-10-18T23:44:27.494Z,8.33
2022-10-18T23:46:54.024Z,8.39
2022-10-18T23:49:20.573Z,8.41
2022-10-18T23:51:47.108Z,8.31
2022-10-18T23:54:13.803Z,8.34
2022-10-18T23:56:40.330Z,8.46
2022-10-18T23:59:06.871Z,8.51
